Time;durP1;ratioP1;P1;durP2;ratioP2;P2;SDS_P1;SDS_P2;PMS_P1;PMS_P2;Temp;Humidity;BMP_temperature;BMP_pressure;BME280_temperature;BME280_humidity;BME280_pressure;Samples;Min_cycle;Max_cycle;Signal;HPM_P1;HPM_P2
2023/02/19 00:01:36;;;;;;;16.90;11.18;;;11.30;99.90;;;;;;5034843;28;20375;-74
2023/02/19 00:04:08;;;;;;;13.27;11.70;;;11.30;99.90;;;;;;5035922;28;20756;-74
2023/02/19 00:06:35;;;;;;;14.70;11.07;;;11.30;99.90;;;;;;5036817;28;20932;-74
2023/02/19 00:09:01;;;;;;;14.38;11.27;;;11.30;99.90;;;;;;5035909;28;20387;-73
2023/02/19 00:11:30;;;;;;;14.65;11.38;;;11.30;99.90;;;;;;5036671;28;20379;-75
2023/02/19 00:13:57;;;;;;;14.20;11.38;;;11.30;99.90;;;;;;5036635;28;20383;-73
2023/02/19 00:16:37;;;;;;;15.10;11.60;;;11.30;99.90;;;;;;5035769;28;20410;-73
2023/02/19 00:19:05;;;;;;;16.60;12.05;;;11.30;99.90;;;;;;5034971;28;20379;-75
2023/02/19 00:21:31;;;;;;;18.50;12.20;;;11.20;99.90;;;;;;5025892;28;20453;-77
2023/02/19 00:24:00;;;;;;;15.20;12.20;;;11.20;99.90;;;;;;5045112;28;20391;-77
2023/02/19 00:26:26;;;;;;;14.87;11.80;;;11.20;99.90;;;;;;5040174;28;20421;-76
2023/02/19 00:28:55;;;;;;;16.63;11.60;;;11.10;99.90;;;;;;5035077;28;20470;-75
2023/02/19 00:31:23;;;;;;;17.83;11.82;;;11.10;99.90;;;;;;5034829;28;20768;-76
2023/02/19 00:33:52;;;;;;;15.23;12.07;;;11.10;99.90;;;;;;5035674;28;20749;-77
2023/02/19 00:36:18;;;;;;;14.65;11.60;;;11.10;99.90;;;;;;5017635;28;20460;-77
2023/02/19 00:38:45;;;;;;;16.02;11.75;;;11.10;99.90;;;;;;5037680;28;20380;-76
2023/02/19 00:41:18;;;;;;;14.73;11.67;;;11.10;99.90;;;;;;5038477;28;20452;-77
2023/02/19 00:44:01;;;;;;;13.88;11.73;;;11.10;99.90;;;;;;5037854;28;20445;-75
2023/02/19 00:46:28;;;;;;;13.88;11.77;;;11.00;99.90;;;;;;5037614;28;20486;-76
2023/02/19 00:48:55;;;;;;;13.85;11.30;;;11.00;99.90;;;;;;5040945;28;20395;-77
2023/02/19 00:51:22;;;;;;;16.27;12.02;;;11.00;99.90;;;;;;5041148;28;20375;-76
2023/02/19 00:53:48;;;;;;;12.20;10.90;;;11.00;99.90;;;;;;5035904;28;20482;-77
2023/02/19 00:56:13;;;;;;;15.43;11.65;;;11.00;99.90;;;;;;5037325;28;20438;-77
2023/02/19 00:58:39;;;;;;;15.13;11.70;;;11.10;99.90;;;;;;5035962;28;20386;-77
2023/02/19 01:01:06;;;;;;;16.23;12.13;;;11.10;99.90;;;;;;5036608;28;20537;-77
2023/02/19 01:03:33;;;;;;;14.60;11.77;;;11.10;99.90;;;;;;5036361;28;20880;-75
2023/02/19 01:05:58;;;;;;;17.90;12.52;;;11.10;99.90;;;;;;5035565;28;20418;-75
2023/02/19 01:08:24;;;;;;;16.50;12.20;;;11.10;99.90;;;;;;5039113;28;20937;-76
2023/02/19 01:10:50;;;;;;;17.90;12.47;;;11.10;99.90;;;;;;5037934;28;20466;-76
2023/02/19 01:13:16;;;;;;;17.10;12.57;;;11.10;99.90;;;;;;5019416;28;20409;-76
2023/02/19 01:15:42;;;;;;;19.75;13.23;;;11.10;99.90;;;;;;5039100;28;20399;-76
2023/02/19 01:18:07;;;;;;;15.85;12.35;;;11.10;99.90;;;;;;5038069;28;20883;-75
2023/02/19 01:20:33;;;;;;;19.00;12.40;;;11.10;99.90;;;;;;5039109;28;20403;-75
2023/02/19 01:22:58;;;;;;;16.30;12.10;;;11.10;99.90;;;;;;5042513;28;20391;-75
2023/02/19 01:25:24;;;;;;;17.80;13.13;;;11.10;99.90;;;;;;5042791;28;20383;-77
2023/02/19 01:27:50;;;;;;;20.23;12.85;;;11.20;99.90;;;;;;5037524;28;20471;-77
2023/02/19 01:30:15;;;;;;;18.35;13.07;;;11.20;99.90;;;;;;5036738;28;20379;-75
2023/02/19 01:32:41;;;;;;;22.08;12.75;;;11.20;99.90;;;;;;5019050;28;20414;-75
2023/02/19 01:35:06;;;;;;;22.95;12.60;;;11.20;99.90;;;;;;5035786;28;20475;-75
2023/02/19 01:37:32;;;;;;;19.48;13.00;;;11.20;99.90;;;;;;5038287;28;20478;-77
2023/02/19 01:39:58;;;;;;;19.48;11.75;;;11.20;99.90;;;;;;5037289;28;20410;-79
2023/02/19 01:42:23;;;;;;;22.92;13.05;;;11.30;99.90;;;;;;5038364;28;20403;-74
2023/02/19 01:45:31;;;;;;;23.10;13.77;;;11.30;99.90;;;;;;5019580;28;20406;-76
2023/02/19 01:47:57;;;;;;;19.30;13.70;;;11.30;99.90;;;;;;5037483;28;20423;-76
2023/02/19 01:50:26;;;;;;;22.02;14.27;;;11.30;99.90;;;;;;5036566;28;20418;-76
2023/02/19 01:52:51;;;;;;;24.17;14.45;;;11.30;98.70;;;;;;5016624;28;20407;-75
2023/02/19 01:55:17;;;;;;;21.60;14.40;;;11.30;98.80;;;;;;5034839;28;20398;-72
2023/02/19 01:57:46;;;;;;;20.17;13.93;;;11.30;99.30;;;;;;5036558;28;20453;-75
2023/02/19 02:00:15;;;;;;;25.50;14.05;;;11.30;99.90;;;;;;5037665;28;20379;-76
2023/02/19 02:02:43;;;;;;;23.48;14.70;;;11.30;99.90;;;;;;5021327;28;20415;-76
2023/02/19 02:05:18;;;;;;;24.50;15.82;;;11.20;99.90;;;;;;5039043;28;20411;-76
2023/02/19 02:10:28;;;;;;;25.67;15.60;;;11.20;99.90;;;;;;5035500;28;20390;-75
2023/02/19 02:12:56;;;;;;;29.57;16.50;;;11.20;99.70;;;;;;5037163;28;20387;-76
2023/02/19 02:15:27;;;;;;;28.60;15.60;;;11.20;99.90;;;;;;5036680;28;20864;-75
2023/02/19 02:18:01;;;;;;;28.08;16.60;;;11.30;98.70;;;;;;5034793;28;20399;-77
2023/02/19 02:20:41;;;;;;;28.00;17.37;;;11.20;99.90;;;;;;5035902;28;20407;-76
2023/02/19 02:23:28;;;;;;;32.45;18.17;;;11.20;99.90;;;;;;5035066;28;20390;-75
2023/02/19 02:25:57;;;;;;;27.42;17.90;;;11.10;99.90;;;;;;5033840;28;20478;-76
2023/02/19 02:28:56;;;;;;;25.23;15.75;;;11.10;99.90;;;;;;5034101;28;20379;-75
2023/02/19 02:31:39;;;;;;;28.40;17.40;;;11.10;99.90;;;;;;5033848;28;20379;-77
2023/02/19 02:34:24;;;;;;;28.90;16.27;;;11.10;99.90;;;;;;5034174;28;20383;-76
2023/02/19 02:36:54;;;;;;;29.67;17.93;;;11.10;99.90;;;;;;5038024;28;20378;-76
2023/02/19 02:39:23;;;;;;;30.90;18.07;;;11.00;99.90;;;;;;5037854;28;20401;-77
2023/02/19 02:44:39;;;;;;;31.08;18.92;;;11.00;99.90;;;;;;5037798;28;20387;-76
2023/02/19 02:47:39;;;;;;;32.03;20.30;;;10.90;99.90;;;;;;5039631;28;20718;-75
2023/02/19 02:50:04;;;;;;;33.38;19.55;;;10.90;99.90;;;;;;5039940;28;20868;-74
2023/02/19 02:55:16;;;;;;;30.83;18.92;;;10.90;99.90;;;;;;5036781;28;20483;-75
2023/02/19 02:57:42;;;;;;;34.72;19.08;;;10.80;99.90;;;;;;5033520;28;20458;-74
2023/02/19 03:00:08;;;;;;;38.80;19.35;;;10.80;99.90;;;;;;5015506;28;20398;-76
2023/02/19 03:02:35;;;;;;;31.30;19.50;;;10.90;99.90;;;;;;5036285;28;20827;-77
2023/02/19 03:08:11;;;;;;;33.83;19.05;;;10.80;99.90;;;;;;5038364;28;20442;-77
2023/02/19 03:10:51;;;;;;;37.50;20.50;;;10.90;99.90;;;;;;5038398;28;20378;-76
2023/02/19 03:19:20;;;;;;;34.00;19.20;;;10.80;99.90;;;;;;5035888;28;20454;-75
2023/02/19 03:21:55;;;;;;;32.05;18.90;;;10.80;99.90;;;;;;5034876;28;20391;-75
2023/02/19 03:27:13;;;;;;;37.03;19.50;;;10.80;99.90;;;;;;5037100;28;20957;-76
2023/02/19 03:29:40;;;;;;;31.98;19.10;;;10.90;99.90;;;;;;5035387;28;20394;-75
2023/02/19 03:32:12;;;;;;;30.00;18.55;;;10.90;99.90;;;;;;5035881;28;20426;-74
2023/02/19 03:34:53;;;;;;;31.70;18.25;;;10.90;99.90;;;;;;5035254;28;20397;-77
2023/02/19 03:37:31;;;;;;;29.77;17.80;;;10.90;99.90;;;;;;5036273;28;20383;-75
2023/02/19 03:39:57;;;;;;;33.42;20.10;;;11.00;99.90;;;;;;5040452;28;20386;-75
2023/02/19 03:42:40;;;;;;;34.17;19.75;;;11.00;99.90;;;;;;5042844;28;20387;-74
2023/02/19 03:45:11;;;;;;;34.78;19.42;;;11.00;99.90;;;;;;5040890;28;20387;-76
2023/02/19 03:47:59;;;;;;;31.92;18.75;;;11.00;99.90;;;;;;5034585;28;20407;-77
2023/02/19 03:50:33;;;;;;;34.00;19.60;;;10.90;99.90;;;;;;5034093;28;20379;-76
2023/02/19 03:53:14;;;;;;;35.10;19.75;;;10.90;99.90;;;;;;5035675;28;20372;-74
2023/02/19 03:56:07;;;;;;;35.17;20.10;;;10.90;99.90;;;;;;5036667;28;20375;-75
2023/02/19 03:58:51;;;;;;;35.27;19.93;;;11.00;99.20;;;;;;5037466;28;20379;-75
2023/02/19 04:01:35;;;;;;;35.42;20.83;;;11.00;99.90;;;;;;5036827;28;20397;-76
2023/02/19 04:04:09;;;;;;;39.20;21.48;;;11.00;99.90;;;;;;5041708;28;20772;-76
2023/02/19 04:06:36;;;;;;;36.95;21.38;;;10.90;99.90;;;;;;5041155;28;20429;-76
2023/02/19 04:09:05;;;;;;;41.03;20.38;;;10.90;99.90;;;;;;5038969;28;20394;-76
2023/02/19 04:11:32;;;;;;;46.78;21.15;;;11.00;99.90;;;;;;5034487;28;20406;-76
2023/02/19 04:14:16;;;;;;;38.25;21.70;;;11.00;99.70;;;;;;5033699;28;20388;-76
2023/02/19 04:16:47;;;;;;;41.70;21.88;;;11.00;99.90;;;;;;5037342;28;20390;-76
2023/02/19 04:19:18;;;;;;;41.95;22.90;;;10.90;99.90;;;;;;5033848;28;20391;-75
2023/02/19 04:21:45;;;;;;;42.45;23.33;;;10.90;99.90;;;;;;5033765;28;20386;-76
2023/02/19 04:24:22;;;;;;;44.88;22.95;;;10.90;99.90;;;;;;5033557;28;20398;-75
2023/02/19 04:26:47;;;;;;;41.08;22.88;;;10.90;99.90;;;;;;5033101;28;20418;-74
2023/02/19 04:29:13;;;;;;;41.33;23.38;;;10.90;99.90;;;;;;5033415;28;20383;-77
2023/02/19 04:31:39;;;;;;;42.80;22.30;;;10.90;99.90;;;;;;5036961;28;20379;-77
2023/02/19 04:34:04;;;;;;;37.03;22.17;;;11.00;98.30;;;;;;5017234;28;20391;-76
2023/02/19 04:36:31;;;;;;;39.33;21.60;;;11.00;98.60;;;;;;5033584;28;20978;-75
2023/02/19 04:38:57;;;;;;;43.45;21.15;;;10.90;98.30;;;;;;5033625;28;20398;-76
2023/02/19 04:41:22;;;;;;;43.03;23.70;;;11.00;99.10;;;;;;5032830;28;20395;-76
2023/02/19 04:43:48;;;;;;;40.70;22.47;;;10.90;99.90;;;;;;5033287;28;20387;-75
2023/02/19 04:46:13;;;;;;;37.73;22.50;;;10.90;99.90;;;;;;5032608;28;20880;-75
2023/02/19 04:48:39;;;;;;;36.42;21.95;;;10.90;99.70;;;;;;5032717;28;20387;-76
2023/02/19 04:51:05;;;;;;;41.05;22.42;;;10.90;99.90;;;;;;5032503;28;20414;-76
2023/02/19 04:53:31;;;;;;;36.42;21.92;;;10.90;99.90;;;;;;5032892;28;20832;-76
2023/02/19 04:55:56;;;;;;;40.50;22.30;;;10.80;99.90;;;;;;5032708;28;20379;-75
2023/02/19 04:58:22;;;;;;;40.20;20.53;;;10.80;99.90;;;;;;5032661;28;20458;-75
2023/02/19 05:00:51;;;;;;;35.50;19.77;;;10.80;99.50;;;;;;5033135;28;20387;-77
2023/02/19 05:03:17;;;;;;;42.55;20.50;;;10.90;95.60;;;;;;5032695;28;20383;-77
2023/02/19 05:05:42;;;;;;;36.10;18.00;;;10.90;96.90;;;;;;5032522;28;20417;-76
2023/02/19 05:08:08;;;;;;;36.43;17.60;;;10.90;96.10;;;;;;5033027;28;20391;-74
2023/02/19 05:10:34;;;;;;;30.70;17.63;;;10.80;96.40;;;;;;5032526;28;20393;-75
2023/02/19 05:12:59;;;;;;;32.70;15.90;;;10.80;96.00;;;;;;5032075;28;20402;-79
2023/02/19 05:15:25;;;;;;;29.17;14.90;;;10.80;95.50;;;;;;5032142;28;20380;-75
2023/02/19 05:17:50;;;;;;;30.07;15.10;;;10.80;94.70;;;;;;5014308;28;20398;-76
2023/02/19 05:20:16;;;;;;;29.73;14.63;;;10.80;95.50;;;;;;5032557;28;20398;-77
2023/02/19 05:22:41;;;;;;;31.63;14.33;;;10.80;95.10;;;;;;5032475;28;20783;-76
2023/02/19 05:25:07;;;;;;;29.73;13.70;;;10.70;95.30;;;;;;5031448;28;20399;-75
2023/02/19 05:27:32;;;;;;;30.03;13.67;;;10.80;94.30;;;;;;5013996;28;20489;-76
2023/02/19 05:29:58;;;;;;;29.93;13.87;;;10.80;94.90;;;;;;5032775;28;20479;-77
2023/02/19 05:32:23;;;;;;;31.52;14.18;;;10.80;94.00;;;;;;5032171;28;20871;-76
2023/02/19 05:34:50;;;;;;;30.45;13.32;;;10.70;95.50;;;;;;5032271;28;20804;-75
2023/02/19 05:37:15;;;;;;;23.20;11.38;;;10.80;94.40;;;;;;5032520;28;20763;-77
2023/02/19 05:39:41;;;;;;;29.33;13.40;;;10.80;93.10;;;;;;5032583;28;20387;-76
2023/02/19 05:42:06;;;;;;;28.17;13.67;;;10.80;93.40;;;;;;5032007;28;20421;-76
2023/02/19 05:44:32;;;;;;;28.17;13.77;;;10.70;93.70;;;;;;5032048;28;20386;-77
2023/02/19 05:46:57;;;;;;;32.67;13.80;;;10.80;94.70;;;;;;5032034;28;20838;-77
2023/02/19 05:49:23;;;;;;;29.47;13.17;;;10.80;94.10;;;;;;5032471;28;20456;-76
2023/02/19 05:51:51;;;;;;;33.38;13.23;;;10.70;94.50;;;;;;5031605;28;20428;-77
2023/02/19 05:54:17;;;;;;;30.00;13.43;;;10.80;91.30;;;;;;5032074;28;21059;-76
2023/02/19 05:56:42;;;;;;;29.07;12.63;;;10.80;92.10;;;;;;5033264;28;20407;-76
2023/02/19 05:59:20;;;;;;;32.70;14.33;;;10.80;92.00;;;;;;5014987;28;20752;-75
2023/02/19 06:01:46;;;;;;;34.67;14.95;;;10.80;92.00;;;;;;5032668;28;20378;-76
2023/02/19 06:04:13;;;;;;;28.25;12.90;;;10.70;93.40;;;;;;5032442;28;20391;-77
2023/02/19 06:06:39;;;;;;;26.92;12.73;;;10.70;92.50;;;;;;5031411;28;20406;-76
2023/02/19 06:09:05;;;;;;;32.45;12.95;;;10.70;92.60;;;;;;5031554;28;20375;-76
2023/02/19 06:11:31;;;;;;;34.88;12.40;;;10.70;90.80;;;;;;5031607;28;20394;-76
2023/02/19 06:13:57;;;;;;;28.23;12.20;;;10.70;90.90;;;;;;5032084;28;20402;-77
2023/02/19 06:16:23;;;;;;;25.17;10.97;;;10.60;92.50;;;;;;5031465;28;20776;-76
2023/02/19 06:18:48;;;;;;;26.77;10.43;;;10.70;90.70;;;;;;5030648;28;20890;-76
2023/02/19 06:21:16;;;;;;;32.30;11.90;;;10.70;89.40;;;;;;5032354;28;20407;-77
2023/02/19 06:23:42;;;;;;;26.95;11.80;;;10.70;91.40;;;;;;5032736;28;20739;-76
2023/02/19 06:26:20;;;;;;;27.88;11.85;;;10.70;91.50;;;;;;5036110;28;20417;-76
2023/02/19 06:28:47;;;;;;;25.48;12.18;;;10.70;92.60;;;;;;5034148;28;20384;-77
2023/02/19 06:31:13;;;;;;;25.27;11.52;;;10.70;91.50;;;;;;5033119;28;20489;-75
2023/02/19 06:33:39;;;;;;;25.67;11.25;;;10.70;90.30;;;;;;5032282;28;20387;-74
2023/02/19 06:36:07;;;;;;;28.42;12.10;;;10.70;91.80;;;;;;5031960;28;20467;-75
2023/02/19 06:38:32;;;;;;;28.90;12.82;;;10.60;93.60;;;;;;5031749;28;20387;-76
2023/02/19 06:41:02;;;;;;;34.70;13.63;;;10.50;94.90;;;;;;5033169;28;20391;-75
2023/02/19 06:43:28;;;;;;;26.20;12.50;;;10.50;96.30;;;;;;5035504;28;20406;-75
2023/02/19 06:45:56;;;;;;;27.33;12.33;;;10.50;97.20;;;;;;5033575;28;20383;-76
2023/02/19 06:48:22;;;;;;;31.00;12.77;;;10.50;98.70;;;;;;5032557;28;20452;-77
2023/02/19 06:50:47;;;;;;;31.43;11.80;;;10.40;99.40;;;;;;5031588;28;20391;-75
2023/02/19 06:53:13;;;;;;;27.48;13.20;;;10.40;99.00;;;;;;5031805;28;20383;-75
2023/02/19 06:55:39;;;;;;;26.05;12.07;;;10.40;99.70;;;;;;5033075;28;20407;-76
2023/02/19 06:58:06;;;;;;;30.10;11.40;;;10.40;99.40;;;;;;5034738;28;20383;-76
2023/02/19 07:00:32;;;;;;;27.77;11.65;;;10.40;98.30;;;;;;5034908;28;20903;-76
2023/02/19 07:02:58;;;;;;;27.63;11.83;;;10.50;98.10;;;;;;5034711;28;20422;-77
2023/02/19 07:05:23;;;;;;;27.17;11.60;;;10.50;97.30;;;;;;5034999;28;20464;-75
2023/02/19 07:07:49;;;;;;;28.70;11.40;;;10.40;97.00;;;;;;5031812;28;20465;-74
2023/02/19 07:10:15;;;;;;;25.50;11.20;;;10.40;97.00;;;;;;5013913;28;20461;-76
2023/02/19 07:12:41;;;;;;;30.20;11.15;;;10.40;98.10;;;;;;5013119;28;20903;-76
2023/02/19 07:15:07;;;;;;;32.75;11.20;;;10.40;95.70;;;;;;5031121;28;20569;-75
2023/02/19 07:17:36;;;;;;;26.13;11.30;;;10.50;95.20;;;;;;5030904;28;20753;-76
2023/02/19 07:20:01;;;;;;;30.15;11.90;;;10.50;94.30;;;;;;5030911;28;20915;-76
2023/02/19 07:22:27;;;;;;;28.37;11.07;;;10.50;95.90;;;;;;5033419;28;20456;-75
2023/02/19 07:24:52;;;;;;;24.90;10.60;;;10.50;95.80;;;;;;5033506;28;20417;-76
2023/02/19 07:27:18;;;;;;;26.53;10.97;;;10.50;95.60;;;;;;5033355;28;20449;-76
2023/02/19 07:29:43;;;;;;;30.88;11.73;;;10.50;94.70;;;;;;5031885;28;20423;-75
2023/02/19 07:32:09;;;;;;;21.90;10.30;;;10.50;94.10;;;;;;5030912;28;20390;-75
2023/02/19 07:34:34;;;;;;;27.08;10.20;;;10.50;92.80;;;;;;5031344;28;20378;-76
2023/02/19 07:37:00;;;;;;;25.10;11.10;;;10.50;92.80;;;;;;5031759;28;20478;-75
2023/02/19 07:39:25;;;;;;;30.50;10.93;;;10.50;91.40;;;;;;5032290;28;20445;-75
2023/02/19 07:41:51;;;;;;;26.03;10.50;;;10.50;93.70;;;;;;5041164;28;20406;-74
2023/02/19 07:44:16;;;;;;;25.57;11.07;;;10.60;95.30;;;;;;5047175;28;20410;-76
2023/02/19 07:46:43;;;;;;;24.50;9.07;;;10.50;99.40;;;;;;5045062;28;20386;-75
2023/02/19 07:49:08;;;;;;;27.25;9.70;;;10.50;97.50;;;;;;5033298;28;20402;-74
2023/02/19 07:51:34;;;;;;;26.20;9.73;;;10.40;99.30;;;;;;5035129;28;20383;-75
2023/02/19 07:54:00;;;;;;;21.95;9.77;;;10.40;99.80;;;;;;5034591;28;20391;-76
2023/02/19 07:56:27;;;;;;;24.90;9.65;;;10.40;99.90;;;;;;5035716;28;20387;-76
2023/02/19 07:58:53;;;;;;;21.93;9.53;;;10.40;99.50;;;;;;5035166;28;20391;-75
2023/02/19 08:02:58;;;;;;;21.77;9.50;;;10.50;96.10;;;;;;5035528;28;20391;-75
2023/02/19 08:04:11;;;;;;;19.67;9.15;;;10.50;95.50;;;;;;5036795;28;20393;-76
2023/02/19 08:06:37;;;;;;;24.92;9.00;;;10.60;94.50;;;;;;5035488;28;20406;-76
2023/02/19 08:09:04;;;;;;;21.83;9.82;;;10.70;92.70;;;;;;5034011;28;20391;-75
2023/02/19 08:14:14;;;;;;;28.45;9.43;;;10.70;91.70;;;;;;5034609;28;20390;-77
2023/02/19 08:16:49;;;;;;;18.83;8.35;;;10.70;91.40;;;;;;5033956;28;20771;-76
2023/02/19 08:19:15;;;;;;;23.67;10.50;;;10.90;89.60;;;;;;5032770;28;20407;-75
2023/02/19 08:21:41;;;;;;;20.00;9.33;;;10.90;91.10;;;;;;5033317;28;20399;-75
2023/02/19 08:24:06;;;;;;;29.30;10.50;;;10.90;88.60;;;;;;5033858;28;20387;-75
2023/02/19 08:26:32;;;;;;;22.93;10.83;;;10.90;89.80;;;;;;5034449;28;20465;-75
2023/02/19 08:28:58;;;;;;;26.58;10.77;;;10.90;88.90;;;;;;5037123;28;20436;-73
2023/02/19 08:31:24;;;;;;;31.25;11.18;;;10.80;88.00;;;;;;5024842;28;20558;-73
2023/02/19 08:33:49;;;;;;;27.05;11.23;;;10.90;89.70;;;;;;5014516;28;20428;-74
2023/02/19 08:36:15;;;;;;;28.70;10.70;;;10.90;89.10;;;;;;5015029;28;20513;-71
2023/02/19 08:38:41;;;;;;;30.80;11.07;;;10.90;86.50;;;;;;5017925;28;20385;-74
2023/02/19 08:41:08;;;;;;;20.63;10.43;;;11.00;85.30;;;;;;5027322;28;20475;-73
2023/02/19 08:43:34;;;;;;;26.10;10.00;;;11.00;85.60;;;;;;5032714;28;20383;-73
2023/02/19 08:46:00;;;;;;;27.48;10.38;;;11.00;82.80;;;;;;5032794;28;20399;-75
2023/02/19 08:48:26;;;;;;;26.30;10.57;;;10.90;82.10;;;;;;5033056;28;20383;-72
2023/02/19 08:50:56;;;;;;;29.50;10.77;;;11.00;83.00;;;;;;5032686;28;20474;-73
2023/02/19 08:53:22;;;;;;;24.85;10.38;;;11.00;83.00;;;;;;5033089;28;20424;-74
2023/02/19 08:55:48;;;;;;;26.02;10.93;;;11.10;82.00;;;;;;5032823;28;20395;-74
2023/02/19 08:58:13;;;;;;;25.57;10.93;;;11.20;80.10;;;;;;5032949;28;20383;-72
2023/02/19 09:00:39;;;;;;;26.20;11.63;;;11.20;78.70;;;;;;5031961;28;20379;-73
2023/02/19 09:03:05;;;;;;;20.90;10.47;;;11.20;78.00;;;;;;5032845;28;20391;-73
2023/02/19 09:05:30;;;;;;;25.95;9.57;;;11.20;76.50;;;;;;5032541;28;20394;-73
2023/02/19 09:07:56;;;;;;;27.35;9.70;;;11.30;74.70;;;;;;5031850;28;20403;-74
2023/02/19 09:10:21;;;;;;;25.42;9.55;;;11.40;74.20;;;;;;5032710;28;20395;-74
2023/02/19 09:12:47;;;;;;;25.48;9.10;;;11.40;73.90;;;;;;5036770;28;20903;-74
2023/02/19 09:15:13;;;;;;;28.05;10.27;;;11.40;74.10;;;;;;5038656;28;20391;-73
2023/02/19 09:17:38;;;;;;;20.30;9.32;;;11.40;73.90;;;;;;5038941;28;20391;-71
2023/02/19 09:20:04;;;;;;;22.27;10.10;;;11.50;73.20;;;;;;5037858;28;20407;-75
2023/02/19 09:22:29;;;;;;;27.10;10.77;;;11.60;71.30;;;;;;5032924;28;20410;-74
2023/02/19 09:24:55;;;;;;;18.98;8.90;;;11.70;71.90;;;;;;5032006;28;20399;-72
2023/02/19 09:27:21;;;;;;;20.97;9.60;;;11.70;68.90;;;;;;5032351;28;20411;-73
2023/02/19 09:29:46;;;;;;;23.13;9.73;;;11.60;69.30;;;;;;5032963;28;20410;-74
2023/02/19 09:32:13;;;;;;;25.30;10.17;;;11.40;73.70;;;;;;5045053;28;20382;-80
2023/02/19 09:35:04;;;;;;;24.13;10.00;;;11.40;76.10;;;;;;5031606;28;20395;-82
2023/02/19 09:37:29;;;;;;;28.13;10.50;;;11.30;81.20;;;;;;5045690;28;20382;-82
2023/02/19 09:39:55;;;;;;;24.37;10.80;;;11.40;76.90;;;;;;5025208;28;20398;-82
2023/02/19 09:42:31;;;;;;;22.93;8.87;;;11.60;75.00;;;;;;5042956;28;20399;-81
2023/02/19 09:44:58;;;;;;;23.85;9.60;;;11.60;73.20;;;;;;5045244;28;20398;-74
2023/02/19 09:47:30;;;;;;;23.27;10.50;;;11.60;76.60;;;;;;5012988;28;20412;-74
2023/02/19 09:49:59;;;;;;;22.05;10.05;;;11.40;82.80;;;;;;5032134;28;20386;-75
2023/02/19 09:52:36;;;;;;;24.67;11.15;;;11.00;93.80;;;;;;5032678;28;20379;-74
2023/02/19 09:55:15;;;;;;;21.40;10.60;;;10.70;99.90;;;;;;5031902;28;20395;-75
2023/02/19 09:57:42;;;;;;;24.70;11.43;;;10.60;99.90;;;;;;5023499;28;20426;-72
2023/02/19 10:00:11;;;;;;;28.63;11.77;;;10.50;99.90;;;;;;5009960;28;20388;-74
2023/02/19 10:02:37;;;;;;;22.50;10.00;;;10.60;99.90;;;;;;5018146;28;20407;-73
2023/02/19 10:05:11;;;;;;;19.75;8.02;;;10.70;99.90;;;;;;5029274;28;20426;-75
2023/02/19 10:07:40;;;;;;;17.77;10.20;;;10.70;97.70;;;;;;5028328;28;20468;-74
2023/02/19 10:10:11;;;;;;;25.08;11.02;;;10.70;99.90;;;;;;5029371;28;20390;-74
2023/02/19 10:12:40;;;;;;;22.10;9.38;;;10.70;99.90;;;;;;5029787;28;20391;-75
2023/02/19 10:15:19;;;;;;;22.30;9.48;;;10.70;99.90;;;;;;5030807;28;20714;-76
2023/02/19 10:17:45;;;;;;;18.33;9.23;;;10.80;99.90;;;;;;5029887;28;20587;-77
2023/02/19 10:20:21;;;;;;;21.93;8.00;;;10.90;97.40;;;;;;5013044;28;20430;-75
2023/02/19 10:22:47;;;;;;;14.90;7.40;;;11.00;91.60;;;;;;5030047;28;20555;-74
2023/02/19 10:25:15;;;;;;;14.80;7.90;;;11.10;92.10;;;;;;5012755;28;20395;-75
2023/02/19 10:27:41;;;;;;;15.35;8.18;;;11.30;93.60;;;;;;5012355;28;20434;-73
2023/02/19 10:30:18;;;;;;;20.58;8.35;;;11.50;86.30;;;;;;5029207;28;20394;-74
2023/02/19 10:33:14;;;;;;;11.93;6.85;;;11.60;82.00;;;;;;5029782;28;20388;-71
2023/02/19 10:36:00;;;;;;;13.90;7.60;;;11.60;80.10;;;;;;5030188;28;20390;-71
2023/02/19 10:38:35;;;;;;;13.40;6.20;;;11.80;82.10;;;;;;5031446;28;20438;-74
2023/02/19 10:41:16;;;;;;;15.65;6.90;;;11.80;70.00;;;;;;5020302;28;20860;-74
2023/02/19 10:43:50;;;;;;;12.38;7.10;;;11.80;73.70;;;;;;5031624;28;20379;-75
2023/02/19 10:46:20;;;;;;;12.38;6.75;;;12.00;71.90;;;;;;5032485;28;20480;-76
2023/02/19 10:49:01;;;;;;;8.30;5.47;;;11.80;70.00;;;;;;5034652;28;20433;-75
2023/02/19 10:51:38;;;;;;;10.40;5.60;;;11.70;72.20;;;;;;5032814;28;20388;-75
2023/02/19 10:54:34;;;;;;;13.60;6.07;;;11.30;74.60;;;;;;5029112;28;20730;-73
2023/02/19 10:57:18;;;;;;;11.43;7.55;;;11.30;82.60;;;;;;5009115;28;20396;-75
2023/02/19 10:59:51;;;;;;;15.00;6.90;;;11.30;83.10;;;;;;5016448;28;20400;-75
2023/02/19 11:02:19;;;;;;;9.90;6.50;;;11.20;85.40;;;;;;5007157;28;20897;-74
2023/02/19 11:05:08;;;;;;;11.88;6.80;;;11.10;88.10;;;;;;5008818;28;20389;-74
2023/02/19 11:07:42;;;;;;;9.45;6.90;;;11.20;88.50;;;;;;5023973;28;20462;-72
2023/02/19 11:10:28;;;;;;;14.02;6.65;;;11.40;86.20;;;;;;5021277;28;20903;-75
2023/02/19 11:13:00;;;;;;;15.30;7.50;;;11.50;88.70;;;;;;5025546;28;20440;-74
2023/02/19 11:15:36;;;;;;;18.13;7.70;;;11.70;85.00;;;;;;5027251;28;20471;-75
2023/02/19 11:18:14;;;;;;;15.18;7.60;;;11.90;79.10;;;;;;5027363;28;20410;-74
2023/02/19 11:20:56;;;;;;;12.35;7.03;;;12.00;79.20;;;;;;5027839;28;20442;-74
2023/02/19 11:23:42;;;;;;;10.32;6.30;;;12.00;78.20;;;;;;5029455;28;20398;-74
2023/02/19 11:26:20;;;;;;;8.97;5.80;;;11.90;82.00;;;;;;5031743;28;20431;-73
2023/02/19 11:29:09;;;;;;;11.20;5.30;;;11.60;84.10;;;;;;5031454;28;20429;-72
2023/02/19 11:31:36;;;;;;;8.45;4.85;;;11.00;94.10;;;;;;5031247;28;20399;-73
2023/02/19 11:34:13;;;;;;;6.73;5.57;;;10.50;99.90;;;;;;5032547;28;20477;-73
2023/02/19 11:36:40;;;;;;;7.70;6.20;;;10.50;99.90;;;;;;5033604;28;20550;-73
2023/02/19 11:39:09;;;;;;;11.23;5.60;;;10.50;99.90;;;;;;5032076;28;20407;-74
2023/02/19 11:41:40;;;;;;;9.63;5.83;;;10.50;99.90;;;;;;5034203;28;20406;-73
2023/02/19 11:44:34;;;;;;;13.43;6.07;;;10.40;99.90;;;;;;5035084;28;20391;-74
2023/02/19 11:47:31;;;;;;;21.33;10.27;;;10.30;99.90;;;;;;5021138;28;20444;-74
2023/02/19 11:50:11;;;;;;;8.50;4.67;;;10.40;99.90;;;;;;5022769;28;20912;-73
2023/02/19 11:53:16;;;;;;;15.00;6.35;;;10.30;99.90;;;;;;5035460;28;20455;-74
2023/02/19 11:56:10;;;;;;;10.70;6.95;;;10.20;99.90;;;;;;5013377;28;20391;-73
2023/02/19 11:58:55;;;;;;;10.13;6.90;;;10.40;99.90;;;;;;5032568;28;20395;-74
2023/02/19 12:01:42;;;;;;;13.60;8.63;;;10.50;99.90;;;;;;5033630;28;20395;-74
2023/02/19 12:04:28;;;;;;;9.80;6.85;;;10.60;99.90;;;;;;5032798;28;20399;-74
2023/02/19 12:06:57;;;;;;;10.45;7.40;;;10.50;99.90;;;;;;5032637;28;20414;-71
2023/02/19 12:09:46;;;;;;;10.90;7.10;;;10.50;99.90;;;;;;5033054;28;20828;-72
2023/02/19 12:12:20;;;;;;;16.93;10.40;;;10.40;99.90;;;;;;5032501;28;20415;-73
2023/02/19 12:15:15;;;;;;;14.77;8.60;;;10.50;99.90;;;;;;5033263;28;20388;-73
2023/02/19 12:17:57;;;;;;;11.63;8.02;;;10.80;99.90;;;;;;5007725;28;20465;-74
2023/02/19 12:20:31;;;;;;;11.93;8.52;;;10.80;99.50;;;;;;5034686;28;20430;-77
2023/02/19 12:23:28;;;;;;;15.15;8.98;;;10.90;98.60;;;;;;5034372;28;20832;-82
2023/02/19 12:26:17;;;;;;;14.90;9.25;;;11.00;97.30;;;;;;5022897;28;20398;-77
2023/02/19 12:28:57;;;;;;;11.13;8.52;;;11.20;94.10;;;;;;5034034;28;20525;-74
2023/02/19 12:32:13;;;;;;;10.27;6.40;;;11.50;90.40;;;;;;5034118;28;20514;-74
2023/02/19 12:35:12;;;;;;;12.10;7.28;;;11.30;82.20;;;;;;4972749;28;20396;-75
2023/02/19 12:38:01;;;;;;;13.65;7.65;;;11.50;86.00;;;;;;5033623;28;20383;-74
2023/02/19 12:40:48;;;;;;;11.30;5.70;;;11.80;78.50;;;;;;5033689;28;20403;-76
2023/02/19 12:43:18;;;;;;;9.80;6.10;;;11.60;69.40;;;;;;5034155;28;20498;-76
2023/02/19 12:45:56;;;;;;;11.43;6.70;;;11.60;74.10;;;;;;5033798;28;20445;-74
2023/02/19 12:48:45;;;;;;;8.97;5.10;;;11.90;73.60;;;;;;5035142;28;20752;-75
2023/02/19 12:51:35;;;;;;;14.20;6.15;;;11.80;66.90;;;;;;5035759;28;20387;-75
2023/02/19 12:54:10;;;;;;;11.18;7.60;;;11.80;70.40;;;;;;5038011;28;20740;-77
2023/02/19 12:56:41;;;;;;;10.38;6.70;;;11.90;68.80;;;;;;5037532;28;20717;-74
2023/02/19 12:59:14;;;;;;;8.63;5.80;;;11.90;67.10;;;;;;5036906;28;20410;-75
2023/02/19 13:01:55;;;;;;;10.68;7.38;;;11.80;69.30;;;;;;5034734;28;20394;-76
2023/02/19 13:04:33;;;;;;;13.85;8.32;;;11.50;69.40;;;;;;5036347;28;20772;-76
2023/02/19 13:07:18;;;;;;;13.60;9.10;;;11.40;75.30;;;;;;5034120;28;20426;-74
2023/02/19 13:09:55;;;;;;;13.75;8.27;;;11.30;77.60;;;;;;5034773;28;20777;-76
2023/02/19 13:12:38;;;;;;;13.75;9.20;;;11.40;74.90;;;;;;5033786;28;20905;-75
2023/02/19 13:15:13;;;;;;;17.90;10.40;;;11.50;76.90;;;;;;5036259;28;20787;-76